This is the latest recevied weather packets stored in our database for station/object KC1ELF. If no packets are shown the sender has not sent any weather packets the latest 10 day(s).
| Time | Temp. | Humidity | Pressure | Rain* | Wind** | Luminosity | Snow |
|---|---|---|---|---|---|---|---|
| 1777650697 | 14.44° C | 48% | 1009.4 hPa | 0 mm | - | - | - |
| 1777650098 | 13.89° C | 51% | 1009.3 hPa | 0 mm | - | - | - |
| 1777649496 | 13.89° C | 50% | 1009.4 hPa | 0 mm | - | - | - |
| 1777648896 | 13.33° C | 51% | 1009.5 hPa | 0 mm | - | - | - |
| 1777648296 | 12.78° C | 54% | 1009.7 hPa | 0 mm | - | - | - |
| 1777647696 | 12.78° C | 54% | 1009.7 hPa | 0 mm | - | - | - |
| 1777647096 | 13.33° C | 54% | 1009.6 hPa | 0 mm | - | - | - |
| 1777646496 | 12.22° C | 57% | 1009.7 hPa | 0 mm | - | - | - |
| 1777645896 | 11.67° C | 57% | 1009.5 hPa | 0 mm | - | - | - |
| 1777645296 | 12.78° C | 55% | 1009.5 hPa | 0 mm | - | - | - |
| 1777644695 | 12.22° C | 58% | 1009.4 hPa | 0 mm | - | - | - |
| 1777644097 | 12.22° C | 60% | 1009.4 hPa | 0 mm | - | - | - |
| 1777643496 | 11.11° C | 60% | 1009.5 hPa | 0 mm | - | - | - |
| 1777642896 | 11.11° C | 60% | 1009.3 hPa | 0 mm | - | - | - |
| 1777642296 | 10.56° C | 63% | 1009.3 hPa | 0 mm | - | - | - |
| 1777641697 | 10° C | 66% | 1009.3 hPa | 0.25 mm | - | - | - |
| 1777641097 | 9.44° C | 69% | 1009.1 hPa | 0.25 mm | - | - | - |
| 1777640496 | 8.89° C | 71% | 1009.3 hPa | 0.25 mm | - | - | - |
| 1777639896 | 8.89° C | 70% | 1009.3 hPa | 0.25 mm | - | - | - |
| 1777639298 | 8.33° C | 74% | 1009.3 hPa | 0.25 mm | - | - | - |
| 1777638696 | 8.33° C | 75% | 1009.1 hPa | 0.25 mm | - | - | - |
| 1777638096 | 7.78° C | 76% | 1009.1 hPa | 0 mm | - | - | - |
| 1777637496 | 7.78° C | 79% | 1009 hPa | 0 mm | - | - | - |
| 1777636896 | 7.78° C | 80% | 1008.8 hPa | 0 mm | - | - | - |
| 1777636296 | 7.22° C | 82% | 1008.7 hPa | 0 mm | - | - | - |
* Rain latest hour (hover to see other rain measurements)
** Current wind speed in m/s (hover to see current wind gust speed)